sensor_id;sensor_type;location;lat;lon;timestamp;temperature;humidity
12089;DHT22;6107;49.078;8.578;2022-08-21T00:00:27;15.80;92.70
12089;DHT22;6107;49.078;8.578;2022-08-21T00:02:59;15.80;92.90
12089;DHT22;6107;49.078;8.578;2022-08-21T00:05:27;15.70;92.80
12089;DHT22;6107;49.078;8.578;2022-08-21T00:07:53;15.60;93.10
12089;DHT22;6107;49.078;8.578;2022-08-21T00:10:19;15.60;93.10
12089;DHT22;6107;49.078;8.578;2022-08-21T00:12:46;15.60;93.30
12089;DHT22;6107;49.078;8.578;2022-08-21T00:15:15;15.50;93.20
12089;DHT22;6107;49.078;8.578;2022-08-21T00:17:41;15.60;93.60
12089;DHT22;6107;49.078;8.578;2022-08-21T00:20:09;15.60;93.60
12089;DHT22;6107;49.078;8.578;2022-08-21T00:22:35;15.50;93.40
12089;DHT22;6107;49.078;8.578;2022-08-21T00:25:02;15.60;93.60
12089;DHT22;6107;49.078;8.578;2022-08-21T00:27:28;15.50;93.60
12089;DHT22;6107;49.078;8.578;2022-08-21T00:29:54;15.80;93.30
12089;DHT22;6107;49.078;8.578;2022-08-21T00:32:23;15.90;93.10
12089;DHT22;6107;49.078;8.578;2022-08-21T00:34:49;16.10;92.50
12089;DHT22;6107;49.078;8.578;2022-08-21T00:37:15;15.50;93.00
12089;DHT22;6107;49.078;8.578;2022-08-21T00:39:41;15.30;94.10
12089;DHT22;6107;49.078;8.578;2022-08-21T00:42:07;15.10;94.40
12089;DHT22;6107;49.078;8.578;2022-08-21T00:44:32;15.00;94.80
12089;DHT22;6107;49.078;8.578;2022-08-21T00:46:58;14.90;94.90
12089;DHT22;6107;49.078;8.578;2022-08-21T00:49:24;14.70;95.50
12089;DHT22;6107;49.078;8.578;2022-08-21T00:51:58;14.70;95.40
12089;DHT22;6107;49.078;8.578;2022-08-21T00:54:26;15.00;95.50
12089;DHT22;6107;49.078;8.578;2022-08-21T00:56:58;15.00;95.20
12089;DHT22;6107;49.078;8.578;2022-08-21T00:59:25;14.80;95.20
12089;DHT22;6107;49.078;8.578;2022-08-21T01:01:52;14.80;95.30
12089;DHT22;6107;49.078;8.578;2022-08-21T01:04:18;14.60;96.10
12089;DHT22;6107;49.078;8.578;2022-08-21T01:06:44;14.70;96.10
12089;DHT22;6107;49.078;8.578;2022-08-21T01:09:10;14.80;96.20
12089;DHT22;6107;49.078;8.578;2022-08-21T01:11:36;14.60;96.00
12089;DHT22;6107;49.078;8.578;2022-08-21T01:14:02;14.70;96.40
12089;DHT22;6107;49.078;8.578;2022-08-21T01:16:28;14.50;96.60
12089;DHT22;6107;49.078;8.578;2022-08-21T01:18:54;14.80;96.70
12089;DHT22;6107;49.078;8.578;2022-08-21T01:21:23;15.00;95.90
12089;DHT22;6107;49.078;8.578;2022-08-21T01:23:52;15.10;95.80
12089;DHT22;6107;49.078;8.578;2022-08-21T01:26:28;15.00;96.00
12089;DHT22;6107;49.078;8.578;2022-08-21T01:28:57;14.90;96.00
12089;DHT22;6107;49.078;8.578;2022-08-21T01:31:27;14.90;96.40
12089;DHT22;6107;49.078;8.578;2022-08-21T01:33:55;14.90;96.00
12089;DHT22;6107;49.078;8.578;2022-08-21T01:36:21;14.30;98.40
12089;DHT22;6107;49.078;8.578;2022-08-21T01:38:47;14.40;99.90
12089;DHT22;6107;49.078;8.578;2022-08-21T01:41:14;14.30;99.90
12089;DHT22;6107;49.078;8.578;2022-08-21T01:43:40;14.70;99.60
12089;DHT22;6107;49.078;8.578;2022-08-21T01:46:06;15.00;98.70
12089;DHT22;6107;49.078;8.578;2022-08-21T01:48:32;14.90;98.60
12089;DHT22;6107;49.078;8.578;2022-08-21T01:50:58;15.00;97.20
12089;DHT22;6107;49.078;8.578;2022-08-21T01:53:24;14.90;97.10
12089;DHT22;6107;49.078;8.578;2022-08-21T01:55:49;14.80;97.20
12089;DHT22;6107;49.078;8.578;2022-08-21T01:58:15;14.60;97.60
12089;DHT22;6107;49.078;8.578;2022-08-21T02:00:40;14.80;97.60
12089;DHT22;6107;49.078;8.578;2022-08-21T02:03:06;14.70;97.60
12089;DHT22;6107;49.078;8.578;2022-08-21T02:05:31;14.60;98.00
12089;DHT22;6107;49.078;8.578;2022-08-21T02:07:57;14.30;99.20
12089;DHT22;6107;49.078;8.578;2022-08-21T02:10:26;14.40;99.60
12089;DHT22;6107;49.078;8.578;2022-08-21T02:12:53;14.60;99.20
12089;DHT22;6107;49.078;8.578;2022-08-21T02:15:20;14.50;99.20
12089;DHT22;6107;49.078;8.578;2022-08-21T02:17:53;14.70;98.70
12089;DHT22;6107;49.078;8.578;2022-08-21T02:20:22;14.70;98.50
12089;DHT22;6107;49.078;8.578;2022-08-21T02:22:48;14.90;98.10
12089;DHT22;6107;49.078;8.578;2022-08-21T02:25:15;14.50;98.40
12089;DHT22;6107;49.078;8.578;2022-08-21T02:27:42;14.60;98.60
12089;DHT22;6107;49.078;8.578;2022-08-21T02:30:12;14.40;99.60
12089;DHT22;6107;49.078;8.578;2022-08-21T02:32:38;14.30;99.80
12089;DHT22;6107;49.078;8.578;2022-08-21T02:35:05;14.40;99.70
12089;DHT22;6107;49.078;8.578;2022-08-21T02:37:31;14.10;99.90
12089;DHT22;6107;49.078;8.578;2022-08-21T02:39:57;14.30;99.90
12089;DHT22;6107;49.078;8.578;2022-08-21T02:42:23;14.30;99.90
12089;DHT22;6107;49.078;8.578;2022-08-21T02:44:49;14.40;99.90
12089;DHT22;6107;49.078;8.578;2022-08-21T02:47:14;14.30;99.90
12089;DHT22;6107;49.078;8.578;2022-08-21T02:49:40;14.50;99.90
12089;DHT22;6107;49.078;8.578;2022-08-21T02:52:05;14.60;99.90
12089;DHT22;6107;49.078;8.578;2022-08-21T02:54:31;14.30;99.90
12089;DHT22;6107;49.078;8.578;2022-08-21T02:56:57;14.50;99.90
12089;DHT22;6107;49.078;8.578;2022-08-21T02:59:23;14.20;99.90
12089;DHT22;6107;49.078;8.578;2022-08-21T03:01:48;14.00;99.90
12089;DHT22;6107;49.078;8.578;2022-08-21T03:04:14;13.90;99.90
12089;DHT22;6107;49.078;8.578;2022-08-21T03:06:40;14.20;99.90
12089;DHT22;6107;49.078;8.578;2022-08-21T03:09:05;14.20;99.90
12089;DHT22;6107;49.078;8.578;2022-08-21T03:11:31;14.10;99.90
12089;DHT22;6107;49.078;8.578;2022-08-21T03:13:56;14.00;99.90
12089;DHT22;6107;49.078;8.578;2022-08-21T03:16:22;14.20;99.90
12089;DHT22;6107;49.078;8.578;2022-08-21T03:18:47;14.20;99.90
12089;DHT22;6107;49.078;8.578;2022-08-21T03:21:13;14.40;99.90
12089;DHT22;6107;49.078;8.578;2022-08-21T03:23:39;14.30;99.90
12089;DHT22;6107;49.078;8.578;2022-08-21T03:26:06;14.40;99.90
12089;DHT22;6107;49.078;8.578;2022-08-21T03:28:31;14.10;99.90
12089;DHT22;6107;49.078;8.578;2022-08-21T03:30:57;14.20;99.90
12089;DHT22;6107;49.078;8.578;2022-08-21T03:33:23;13.80;99.90
12089;DHT22;6107;49.078;8.578;2022-08-21T03:36:01;13.90;99.90
12089;DHT22;6107;49.078;8.578;2022-08-21T03:38:29;13.60;99.90
12089;DHT22;6107;49.078;8.578;2022-08-21T03:40:55;13.50;99.90
12089;DHT22;6107;49.078;8.578;2022-08-21T03:43:21;14.80;99.90
12089;DHT22;6107;49.078;8.578;2022-08-21T03:45:46;13.60;99.90
12089;DHT22;6107;49.078;8.578;2022-08-21T03:48:12;13.60;99.90
12089;DHT22;6107;49.078;8.578;2022-08-21T03:50:41;13.70;99.90
12089;DHT22;6107;49.078;8.578;2022-08-21T03:53:08;14.00;99.90
12089;DHT22;6107;49.078;8.578;2022-08-21T03:55:34;13.60;99.90
12089;DHT22;6107;49.078;8.578;2022-08-21T03:57:59;13.80;99.90
12089;DHT22;6107;49.078;8.578;2022-08-21T04:00:25;13.90;99.90
12089;DHT22;6107;49.078;8.578;2022-08-21T04:02:51;14.10;99.90
12089;DHT22;6107;49.078;8.578;2022-08-21T04:05:18;14.10;99.90
12089;DHT22;6107;49.078;8.578;2022-08-21T04:08:00;14.10;99.90
12089;DHT22;6107;49.078;8.578;2022-08-21T04:10:28;14.10;99.90
12089;DHT22;6107;49.078;8.578;2022-08-21T04:12:55;14.20;99.90
12089;DHT22;6107;49.078;8.578;2022-08-21T04:15:22;14.10;99.90
12089;DHT22;6107;49.078;8.578;2022-08-21T04:17:48;13.80;99.90
12089;DHT22;6107;49.078;8.578;2022-08-21T04:20:15;13.50;99.90
12089;DHT22;6107;49.078;8.578;2022-08-21T04:22:41;14.00;99.90
12089;DHT22;6107;49.078;8.578;2022-08-21T04:25:06;13.40;99.90
12089;DHT22;6107;49.078;8.578;2022-08-21T04:27:33;13.10;99.90
12089;DHT22;6107;49.078;8.578;2022-08-21T04:29:58;13.10;99.90
12089;DHT22;6107;49.078;8.578;2022-08-21T04:32:25;12.90;99.90
12089;DHT22;6107;49.078;8.578;2022-08-21T04:35:01;13.10;99.90
12089;DHT22;6107;49.078;8.578;2022-08-21T04:37:27;13.30;99.90
12089;DHT22;6107;49.078;8.578;2022-08-21T04:39:53;13.40;99.90
12089;DHT22;6107;49.078;8.578;2022-08-21T04:42:21;13.30;99.90
12089;DHT22;6107;49.078;8.578;2022-08-21T04:44:48;13.40;99.90
12089;DHT22;6107;49.078;8.578;2022-08-21T04:47:14;13.40;99.90
12089;DHT22;6107;49.078;8.578;2022-08-21T04:49:40;13.40;99.90
12089;DHT22;6107;49.078;8.578;2022-08-21T04:52:06;13.20;99.90
12089;DHT22;6107;49.078;8.578;2022-08-21T04:54:31;13.10;99.90
12089;DHT22;6107;49.078;8.578;2022-08-21T04:57:04;13.30;99.90
12089;DHT22;6107;49.078;8.578;2022-08-21T04:59:38;13.40;99.90
12089;DHT22;6107;49.078;8.578;2022-08-21T05:02:06;13.20;99.90
12089;DHT22;6107;49.078;8.578;2022-08-21T05:04:33;13.30;99.90
12089;DHT22;6107;49.078;8.578;2022-08-21T05:07:02;13.40;99.90
12089;DHT22;6107;49.078;8.578;2022-08-21T05:09:29;13.40;99.90
12089;DHT22;6107;49.078;8.578;2022-08-21T05:11:55;13.70;99.90
12089;DHT22;6107;49.078;8.578;2022-08-21T05:14:21;14.00;99.90
12089;DHT22;6107;49.078;8.578;2022-08-21T05:16:47;14.10;99.90
12089;DHT22;6107;49.078;8.578;2022-08-21T05:19:13;14.10;99.90
12089;DHT22;6107;49.078;8.578;2022-08-21T05:21:43;14.20;99.90
12089;DHT22;6107;49.078;8.578;2022-08-21T05:24:09;14.30;99.90
12089;DHT22;6107;49.078;8.578;2022-08-21T05:26:35;14.40;99.90
12089;DHT22;6107;49.078;8.578;2022-08-21T05:29:02;14.20;99.90
12089;DHT22;6107;49.078;8.578;2022-08-21T05:31:28;14.20;99.90
12089;DHT22;6107;49.078;8.578;2022-08-21T05:33:53;14.40;99.90
12089;DHT22;6107;49.078;8.578;2022-08-21T05:36:19;14.40;99.90
12089;DHT22;6107;49.078;8.578;2022-08-21T05:38:45;14.50;99.90
12089;DHT22;6107;49.078;8.578;2022-08-21T05:41:10;14.60;99.90
12089;DHT22;6107;49.078;8.578;2022-08-21T05:43:36;14.80;99.90
12089;DHT22;6107;49.078;8.578;2022-08-21T05:46:06;14.90;99.90
12089;DHT22;6107;49.078;8.578;2022-08-21T05:48:32;14.90;99.90
12089;DHT22;6107;49.078;8.578;2022-08-21T05:51:07;16.00;99.90
12089;DHT22;6107;49.078;8.578;2022-08-21T05:58:29;15.30;99.90
12089;DHT22;6107;49.078;8.578;2022-08-21T06:00:55;15.40;99.90
12089;DHT22;6107;49.078;8.578;2022-08-21T06:03:23;15.50;99.90
12089;DHT22;6107;49.078;8.578;2022-08-21T06:05:48;15.60;99.90
12089;DHT22;6107;49.078;8.578;2022-08-21T06:08:15;15.70;99.90
12089;DHT22;6107;49.078;8.578;2022-08-21T06:10:42;15.90;99.90
12089;DHT22;6107;49.078;8.578;2022-08-21T06:13:08;16.10;99.90
12089;DHT22;6107;49.078;8.578;2022-08-21T06:15:34;16.10;99.90
12089;DHT22;6107;49.078;8.578;2022-08-21T06:17:59;16.20;99.90
12089;DHT22;6107;49.078;8.578;2022-08-21T06:20:25;16.30;99.90
12089;DHT22;6107;49.078;8.578;2022-08-21T06:22:51;16.40;99.90
12089;DHT22;6107;49.078;8.578;2022-08-21T06:25:16;16.60;99.90
12089;DHT22;6107;49.078;8.578;2022-08-21T06:27:42;16.80;99.90
12089;DHT22;6107;49.078;8.578;2022-08-21T06:30:08;16.90;99.90
12089;DHT22;6107;49.078;8.578;2022-08-21T06:32:35;17.00;99.90
12089;DHT22;6107;49.078;8.578;2022-08-21T06:35:00;17.00;99.90
12089;DHT22;6107;49.078;8.578;2022-08-21T06:37:26;17.20;99.90
12089;DHT22;6107;49.078;8.578;2022-08-21T06:39:52;17.50;99.90
12089;DHT22;6107;49.078;8.578;2022-08-21T06:42:18;17.70;99.90
12089;DHT22;6107;49.078;8.578;2022-08-21T06:44:44;18.20;98.70
12089;DHT22;6107;49.078;8.578;2022-08-21T06:47:10;18.30;98.00
12089;DHT22;6107;49.078;8.578;2022-08-21T06:52:02;18.50;97.60
12089;DHT22;6107;49.078;8.578;2022-08-21T06:54:28;19.70;94.50
12089;DHT22;6107;49.078;8.578;2022-08-21T06:56:53;20.10;93.40
12089;DHT22;6107;49.078;8.578;2022-08-21T06:59:19;20.10;93.00
12089;DHT22;6107;49.078;8.578;2022-08-21T07:01:44;20.20;92.90
12089;DHT22;6107;49.078;8.578;2022-08-21T07:04:10;20.50;92.40
12089;DHT22;6107;49.078;8.578;2022-08-21T07:06:36;20.70;91.60
12089;DHT22;6107;49.078;8.578;2022-08-21T07:09:02;20.60;91.00
12089;DHT22;6107;49.078;8.578;2022-08-21T07:11:28;20.10;91.60
12089;DHT22;6107;49.078;8.578;2022-08-21T07:13:54;19.80;92.00
12089;DHT22;6107;49.078;8.578;2022-08-21T07:16:22;19.80;91.90
12089;DHT22;6107;49.078;8.578;2022-08-21T07:18:47;19.70;92.00
12089;DHT22;6107;49.078;8.578;2022-08-21T07:21:14;19.80;91.90
12089;DHT22;6107;49.078;8.578;2022-08-21T07:23:46;19.80;91.80
12089;DHT22;6107;49.078;8.578;2022-08-21T07:26:13;20.00;91.70
12089;DHT22;6107;49.078;8.578;2022-08-21T07:28:39;20.30;92.00
12089;DHT22;6107;49.078;8.578;2022-08-21T07:31:05;20.40;90.60
12089;DHT22;6107;49.078;8.578;2022-08-21T07:33:32;20.30;90.90
12089;DHT22;6107;49.078;8.578;2022-08-21T07:35:58;20.20;90.70
12089;DHT22;6107;49.078;8.578;2022-08-21T07:38:24;20.10;91.00
12089;DHT22;6107;49.078;8.578;2022-08-21T07:40:52;20.10;91.40
12089;DHT22;6107;49.078;8.578;2022-08-21T07:43:18;20.30;91.00
12089;DHT22;6107;49.078;8.578;2022-08-21T07:45:44;20.40;91.40
12089;DHT22;6107;49.078;8.578;2022-08-21T07:48:10;20.50;91.50
12089;DHT22;6107;49.078;8.578;2022-08-21T07:50:35;20.50;90.40
12089;DHT22;6107;49.078;8.578;2022-08-21T07:53:02;20.50;90.30
12089;DHT22;6107;49.078;8.578;2022-08-21T07:55:28;20.60;90.90
12089;DHT22;6107;49.078;8.578;2022-08-21T07:57:53;20.70;90.20
12089;DHT22;6107;49.078;8.578;2022-08-21T08:00:22;20.80;89.50
12089;DHT22;6107;49.078;8.578;2022-08-21T08:02:50;21.10;90.00
12089;DHT22;6107;49.078;8.578;2022-08-21T08:05:18;21.20;87.80
12089;DHT22;6107;49.078;8.578;2022-08-21T08:07:44;21.20;88.80
12089;DHT22;6107;49.078;8.578;2022-08-21T08:10:10;21.40;87.30
12089;DHT22;6107;49.078;8.578;2022-08-21T08:12:37;21.30;85.20
12089;DHT22;6107;49.078;8.578;2022-08-21T08:15:05;21.50;84.30
12089;DHT22;6107;49.078;8.578;2022-08-21T08:17:31;21.90;88.60
12089;DHT22;6107;49.078;8.578;2022-08-21T08:19:57;22.10;88.90
12089;DHT22;6107;49.078;8.578;2022-08-21T08:22:24;22.00;89.10
12089;DHT22;6107;49.078;8.578;2022-08-21T08:24:51;22.10;90.90
12089;DHT22;6107;49.078;8.578;2022-08-21T08:27:17;22.20;90.20
12089;DHT22;6107;49.078;8.578;2022-08-21T08:29:43;22.40;89.70
12089;DHT22;6107;49.078;8.578;2022-08-21T08:32:09;22.40;88.10
12089;DHT22;6107;49.078;8.578;2022-08-21T08:34:36;22.40;88.20
12089;DHT22;6107;49.078;8.578;2022-08-21T08:37:02;22.60;81.90
12089;DHT22;6107;49.078;8.578;2022-08-21T08:39:28;22.80;79.80
12089;DHT22;6107;49.078;8.578;2022-08-21T08:42:11;23.00;80.20
12089;DHT22;6107;49.078;8.578;2022-08-21T08:44:40;23.00;77.90
12089;DHT22;6107;49.078;8.578;2022-08-21T08:47:08;23.30;81.90
12089;DHT22;6107;49.078;8.578;2022-08-21T08:49:38;23.40;83.70
12089;DHT22;6107;49.078;8.578;2022-08-21T08:52:22;23.50;81.20
12089;DHT22;6107;49.078;8.578;2022-08-21T08:55:17;23.50;81.30
12089;DHT22;6107;49.078;8.578;2022-08-21T08:57:46;23.70;81.70
12089;DHT22;6107;49.078;8.578;2022-08-21T09:00:16;23.70;81.60
12089;DHT22;6107;49.078;8.578;2022-08-21T09:02:43;23.80;81.20
12089;DHT22;6107;49.078;8.578;2022-08-21T09:05:19;23.80;81.70
12089;DHT22;6107;49.078;8.578;2022-08-21T09:10:57;24.20;82.30
12089;DHT22;6107;49.078;8.578;2022-08-21T09:13:46;24.40;80.10
12089;DHT22;6107;49.078;8.578;2022-08-21T09:21:49;25.00;77.00
12089;DHT22;6107;49.078;8.578;2022-08-21T09:24:45;25.00;76.50
12089;DHT22;6107;49.078;8.578;2022-08-21T09:27:14;25.30;75.80
12089;DHT22;6107;49.078;8.578;2022-08-21T09:29:43;25.30;80.70
12089;DHT22;6107;49.078;8.578;2022-08-21T09:32:20;25.60;77.30
12089;DHT22;6107;49.078;8.578;2022-08-21T09:37:28;26.00;81.10
12089;DHT22;6107;49.078;8.578;2022-08-21T09:39:55;26.40;82.60
12089;DHT22;6107;49.078;8.578;2022-08-21T09:42:32;26.60;72.10
12089;DHT22;6107;49.078;8.578;2022-08-21T09:45:14;26.50;69.60
12089;DHT22;6107;49.078;8.578;2022-08-21T09:47:41;26.60;71.10
12089;DHT22;6107;49.078;8.578;2022-08-21T09:50:19;26.30;66.60
12089;DHT22;6107;49.078;8.578;2022-08-21T09:52:53;26.30;69.30
12089;DHT22;6107;49.078;8.578;2022-08-21T09:56:17;26.40;67.20
12089;DHT22;6107;49.078;8.578;2022-08-21T09:58:34;26.70;68.50
12089;DHT22;6107;49.078;8.578;2022-08-21T10:01:02;27.20;70.90
12089;DHT22;6107;49.078;8.578;2022-08-21T10:03:28;27.50;70.60
12089;DHT22;6107;49.078;8.578;2022-08-21T10:08:26;27.70;70.60
12089;DHT22;6107;49.078;8.578;2022-08-21T10:11:02;28.00;72.90
12089;DHT22;6107;49.078;8.578;2022-08-21T10:16:38;28.50;68.90
12089;DHT22;6107;49.078;8.578;2022-08-21T10:19:38;28.80;72.60
12089;DHT22;6107;49.078;8.578;2022-08-21T10:30:35;29.60;70.10
12089;DHT22;6107;49.078;8.578;2022-08-21T10:41:59;28.20;67.20
12089;DHT22;6107;49.078;8.578;2022-08-21T10:44:33;27.70;65.00
12089;DHT22;6107;49.078;8.578;2022-08-21T10:47:57;28.00;66.90
12089;DHT22;6107;49.078;8.578;2022-08-21T10:50:25;28.00;66.20
12089;DHT22;6107;49.078;8.578;2022-08-21T10:58:37;28.20;68.40
12089;DHT22;6107;49.078;8.578;2022-08-21T11:01:11;28.30;67.80
12089;DHT22;6107;49.078;8.578;2022-08-21T11:03:46;29.20;65.90
12089;DHT22;6107;49.078;8.578;2022-08-21T11:06:25;29.50;62.10
12089;DHT22;6107;49.078;8.578;2022-08-21T11:09:06;29.70;61.90
12089;DHT22;6107;49.078;8.578;2022-08-21T11:11:38;29.70;61.50
12089;DHT22;6107;49.078;8.578;2022-08-21T11:16:49;30.40;58.30
12089;DHT22;6107;49.078;8.578;2022-08-21T11:21:58;30.10;57.50
12089;DHT22;6107;49.078;8.578;2022-08-21T11:29:48;30.20;60.30
12089;DHT22;6107;49.078;8.578;2022-08-21T11:38:06;31.50;72.10
12089;DHT22;6107;49.078;8.578;2022-08-21T11:43:43;31.30;49.30
12089;DHT22;6107;49.078;8.578;2022-08-21T11:49:26;30.20;48.30
12089;DHT22;6107;49.078;8.578;2022-08-21T11:57:21;31.50;48.90
12089;DHT22;6107;49.078;8.578;2022-08-21T12:00:11;31.40;47.60
12089;DHT22;6107;49.078;8.578;2022-08-21T12:02:42;31.80;49.50
12089;DHT22;6107;49.078;8.578;2022-08-21T12:05:22;31.00;47.20
12089;DHT22;6107;49.078;8.578;2022-08-21T12:07:48;30.80;47.10
12089;DHT22;6107;49.078;8.578;2022-08-21T12:10:18;31.50;49.80
12089;DHT22;6107;49.078;8.578;2022-08-21T12:12:47;31.80;46.60
12089;DHT22;6107;49.078;8.578;2022-08-21T12:15:15;31.90;47.50
12089;DHT22;6107;49.078;8.578;2022-08-21T12:18:02;32.50;43.70
12089;DHT22;6107;49.078;8.578;2022-08-21T12:20:36;32.40;42.90
12089;DHT22;6107;49.078;8.578;2022-08-21T12:23:16;32.80;41.90
12089;DHT22;6107;49.078;8.578;2022-08-21T12:25:43;32.60;41.30
12089;DHT22;6107;49.078;8.578;2022-08-21T12:28:22;32.30;41.50
12089;DHT22;6107;49.078;8.578;2022-08-21T12:30:49;32.00;42.40
12089;DHT22;6107;49.078;8.578;2022-08-21T12:33:27;30.90;41.20
12089;DHT22;6107;49.078;8.578;2022-08-21T12:36:11;29.80;42.30
12089;DHT22;6107;49.078;8.578;2022-08-21T12:38:50;29.70;43.60
12089;DHT22;6107;49.078;8.578;2022-08-21T12:41:19;30.30;44.60
12089;DHT22;6107;49.078;8.578;2022-08-21T12:43:51;31.40;44.60
12089;DHT22;6107;49.078;8.578;2022-08-21T12:46:29;31.80;42.30
12089;DHT22;6107;49.078;8.578;2022-08-21T12:49:00;31.50;41.20
12089;DHT22;6107;49.078;8.578;2022-08-21T12:51:38;31.20;40.90
12089;DHT22;6107;49.078;8.578;2022-08-21T12:54:09;31.00;42.50
12089;DHT22;6107;49.078;8.578;2022-08-21T12:56:35;31.20;41.50
12089;DHT22;6107;49.078;8.578;2022-08-21T12:59:10;31.60;40.90
12089;DHT22;6107;49.078;8.578;2022-08-21T13:01:48;32.20;41.80
12089;DHT22;6107;49.078;8.578;2022-08-21T13:04:20;32.90;41.50
12089;DHT22;6107;49.078;8.578;2022-08-21T13:06:49;33.20;40.10
12089;DHT22;6107;49.078;8.578;2022-08-21T13:09:19;32.30;39.20
12089;DHT22;6107;49.078;8.578;2022-08-21T13:11:47;32.70;39.90
12089;DHT22;6107;49.078;8.578;2022-08-21T13:14:28;33.40;40.60
12089;DHT22;6107;49.078;8.578;2022-08-21T13:16:55;33.10;38.90
12089;DHT22;6107;49.078;8.578;2022-08-21T13:19:21;33.90;55.20
12089;DHT22;6107;49.078;8.578;2022-08-21T13:21:47;33.70;48.10
12089;DHT22;6107;49.078;8.578;2022-08-21T13:24:19;33.90;48.00
12089;DHT22;6107;49.078;8.578;2022-08-21T13:26:46;34.10;48.20
12089;DHT22;6107;49.078;8.578;2022-08-21T13:29:14;33.50;46.20
12089;DHT22;6107;49.078;8.578;2022-08-21T13:31:46;33.00;47.20
12089;DHT22;6107;49.078;8.578;2022-08-21T13:34:12;32.60;45.80
12089;DHT22;6107;49.078;8.578;2022-08-21T13:36:42;32.90;46.60
12089;DHT22;6107;49.078;8.578;2022-08-21T13:39:11;33.00;46.10
12089;DHT22;6107;49.078;8.578;2022-08-21T13:41:39;33.20;46.50
12089;DHT22;6107;49.078;8.578;2022-08-21T13:44:30;32.00;46.30
12089;DHT22;6107;49.078;8.578;2022-08-21T13:46:59;32.40;47.30
12089;DHT22;6107;49.078;8.578;2022-08-21T13:49:34;33.40;46.70
12089;DHT22;6107;49.078;8.578;2022-08-21T13:52:02;33.90;43.40
12089;DHT22;6107;49.078;8.578;2022-08-21T13:54:36;33.00;43.40
12089;DHT22;6107;49.078;8.578;2022-08-21T13:57:03;32.50;44.50
12089;DHT22;6107;49.078;8.578;2022-08-21T13:59:31;33.20;44.70
12089;DHT22;6107;49.078;8.578;2022-08-21T14:02:14;33.20;42.60
12089;DHT22;6107;49.078;8.578;2022-08-21T14:04:51;33.90;43.90
12089;DHT22;6107;49.078;8.578;2022-08-21T14:07:34;34.00;41.20
12089;DHT22;6107;49.078;8.578;2022-08-21T14:12:42;33.20;41.70
12089;DHT22;6107;49.078;8.578;2022-08-21T14:15:09;33.00;40.70
12089;DHT22;6107;49.078;8.578;2022-08-21T14:17:41;32.90;41.20
12089;DHT22;6107;49.078;8.578;2022-08-21T14:20:10;33.20;41.00
12089;DHT22;6107;49.078;8.578;2022-08-21T14:22:47;32.60;41.00
12089;DHT22;6107;49.078;8.578;2022-08-21T14:30:36;32.90;42.20
12089;DHT22;6107;49.078;8.578;2022-08-21T14:33:03;33.20;42.00
12089;DHT22;6107;49.078;8.578;2022-08-21T14:35:30;33.90;41.20
12089;DHT22;6107;49.078;8.578;2022-08-21T14:37:56;34.00;40.40
12089;DHT22;6107;49.078;8.578;2022-08-21T14:40:23;34.30;40.20
12089;DHT22;6107;49.078;8.578;2022-08-21T14:42:49;34.70;36.10
12089;DHT22;6107;49.078;8.578;2022-08-21T14:45:33;34.90;39.80
12089;DHT22;6107;49.078;8.578;2022-08-21T14:47:59;35.00;33.80
12089;DHT22;6107;49.078;8.578;2022-08-21T14:50:25;35.20;34.20
12089;DHT22;6107;49.078;8.578;2022-08-21T14:52:51;35.00;34.10
12089;DHT22;6107;49.078;8.578;2022-08-21T14:55:18;35.00;34.00
12089;DHT22;6107;49.078;8.578;2022-08-21T14:57:46;35.10;34.00
12089;DHT22;6107;49.078;8.578;2022-08-21T15:00:19;34.90;33.90
12089;DHT22;6107;49.078;8.578;2022-08-21T15:02:45;34.00;34.90
12089;DHT22;6107;49.078;8.578;2022-08-21T15:07:37;34.50;34.80
12089;DHT22;6107;49.078;8.578;2022-08-21T15:10:04;34.90;35.30
12089;DHT22;6107;49.078;8.578;2022-08-21T15:12:30;35.20;34.90
12089;DHT22;6107;49.078;8.578;2022-08-21T15:14:56;35.00;33.60
12089;DHT22;6107;49.078;8.578;2022-08-21T15:17:21;32.80;33.50
12089;DHT22;6107;49.078;8.578;2022-08-21T15:19:47;33.10;33.70
12089;DHT22;6107;49.078;8.578;2022-08-21T15:22:12;33.30;35.40
12089;DHT22;6107;49.078;8.578;2022-08-21T15:24:38;32.90;33.60
12089;DHT22;6107;49.078;8.578;2022-08-21T15:27:06;32.90;33.80
12089;DHT22;6107;49.078;8.578;2022-08-21T15:32:02;32.40;33.70
12089;DHT22;6107;49.078;8.578;2022-08-21T15:34:29;33.80;35.80
12089;DHT22;6107;49.078;8.578;2022-08-21T15:36:56;34.40;35.00
12089;DHT22;6107;49.078;8.578;2022-08-21T15:39:23;34.20;34.90
12089;DHT22;6107;49.078;8.578;2022-08-21T15:41:49;34.30;34.40
12089;DHT22;6107;49.078;8.578;2022-08-21T15:44:15;34.30;34.90
12089;DHT22;6107;49.078;8.578;2022-08-21T15:46:41;33.90;33.20
12089;DHT22;6107;49.078;8.578;2022-08-21T15:49:07;33.60;34.20
12089;DHT22;6107;49.078;8.578;2022-08-21T15:51:33;33.90;33.10
12089;DHT22;6107;49.078;8.578;2022-08-21T15:53:59;34.40;34.70
12089;DHT22;6107;49.078;8.578;2022-08-21T15:56:33;33.90;33.30
12089;DHT22;6107;49.078;8.578;2022-08-21T15:59:04;34.10;35.10
12089;DHT22;6107;49.078;8.578;2022-08-21T16:01:29;34.20;33.70
12089;DHT22;6107;49.078;8.578;2022-08-21T16:03:55;34.20;34.00
12089;DHT22;6107;49.078;8.578;2022-08-21T16:06:21;34.10;35.20
12089;DHT22;6107;49.078;8.578;2022-08-21T16:08:46;34.10;34.10
12089;DHT22;6107;49.078;8.578;2022-08-21T16:11:13;34.30;34.80
12089;DHT22;6107;49.078;8.578;2022-08-21T16:13:42;34.50;34.20
12089;DHT22;6107;49.078;8.578;2022-08-21T16:16:19;34.20;34.00
12089;DHT22;6107;49.078;8.578;2022-08-21T16:18:46;33.90;34.00
12089;DHT22;6107;49.078;8.578;2022-08-21T16:21:12;34.20;33.60
12089;DHT22;6107;49.078;8.578;2022-08-21T16:23:38;34.30;33.90
12089;DHT22;6107;49.078;8.578;2022-08-21T16:26:07;33.30;33.60
12089;DHT22;6107;49.078;8.578;2022-08-21T16:28:34;34.00;33.50
12089;DHT22;6107;49.078;8.578;2022-08-21T16:31:02;33.80;33.80
12089;DHT22;6107;49.078;8.578;2022-08-21T16:33:40;32.50;33.10
12089;DHT22;6107;49.078;8.578;2022-08-21T16:36:07;32.50;34.70
12089;DHT22;6107;49.078;8.578;2022-08-21T16:38:35;33.10;34.10
12089;DHT22;6107;49.078;8.578;2022-08-21T16:41:06;33.50;35.90
12089;DHT22;6107;49.078;8.578;2022-08-21T16:43:33;33.40;34.30
12089;DHT22;6107;49.078;8.578;2022-08-21T16:45:59;33.20;33.10
12089;DHT22;6107;49.078;8.578;2022-08-21T16:48:26;32.90;35.70
12089;DHT22;6107;49.078;8.578;2022-08-21T16:50:54;32.90;33.40
12089;DHT22;6107;49.078;8.578;2022-08-21T16:53:19;32.90;34.20
12089;DHT22;6107;49.078;8.578;2022-08-21T16:55:45;32.60;34.50
12089;DHT22;6107;49.078;8.578;2022-08-21T16:58:18;32.30;33.80
12089;DHT22;6107;49.078;8.578;2022-08-21T17:00:45;32.10;34.90
12089;DHT22;6107;49.078;8.578;2022-08-21T17:03:14;32.10;36.00
12089;DHT22;6107;49.078;8.578;2022-08-21T17:05:41;31.70;36.30
12089;DHT22;6107;49.078;8.578;2022-08-21T17:08:06;30.40;41.10
12089;DHT22;6107;49.078;8.578;2022-08-21T17:10:33;30.20;42.80
12089;DHT22;6107;49.078;8.578;2022-08-21T17:12:59;29.50;44.60
12089;DHT22;6107;49.078;8.578;2022-08-21T17:15:28;29.10;49.80
12089;DHT22;6107;49.078;8.578;2022-08-21T17:17:54;29.10;38.20
12089;DHT22;6107;49.078;8.578;2022-08-21T17:20:21;29.50;38.10
12089;DHT22;6107;49.078;8.578;2022-08-21T17:22:47;29.50;38.90